Time;durP1;ratioP1;P1;durP2;ratioP2;P2;SDS_P1;SDS_P2;PMS_P1;PMS_P2;Temp;Humidity;BMP_temperature;BMP_pressure;BME280_temperature;BME280_humidity;BME280_pressure;Samples;Min_cycle;Max_cycle;Signal;HPM_P1;HPM_P2
2023/02/28 11:19:04;;;;;;;13.40;7.18;;;;;;;2.38;58.19;97250.31;2083664;28;20560;-59
2023/02/28 11:20:07;;;;;;;13.20;7.40;;;;;;;3.53;55.95;97263.53;2079083;28;20201;-59
2023/02/28 11:21:15;;;;;;;14.90;8.05;;;;;;;3.92;54.35;97255.47;2082634;28;20689;-59
2023/02/28 11:22:21;;;;;;;19.65;8.43;;;;;;;4.77;52.19;97254.63;2082181;28;20208;-59
2023/02/28 11:24:45;;;;;;;18.10;8.35;;;;;;;4.62;52.43;97260.88;2084871;28;20583;-60
2023/02/28 11:27:00;;;;;;;16.15;7.82;;;;;;;5.10;50.82;97262.84;2085354;28;20570;-57
2023/02/28 11:29:47;;;;;;;14.63;7.68;;;;;;;3.57;52.28;97256.63;2100907;27;20566;-57
2023/02/28 11:31:04;;;;;;;13.25;7.93;;;;;;;4.08;52.13;97262.22;2089709;28;20354;-58
2023/02/28 11:32:15;;;;;;;17.50;7.70;;;;;;;4.66;51.02;97266.84;2081182;28;20258;-58
2023/02/28 11:33:28;;;;;;;16.08;8.63;;;;;;;4.65;51.75;97268.56;2082100;28;20196;-58
2023/02/28 11:35:34;;;;;;;10.65;7.15;;;;;;;4.21;51.68;97254.38;2084135;28;20548;-58
2023/02/28 11:36:41;;;;;;;11.65;7.60;;;;;;;4.34;51.72;97249.94;2077655;28;21154;-57
2023/02/28 11:43:00;;;;;;;20.88;10.85;;;;;;;4.06;52.87;97253.66;2084137;28;20553;-57
2023/02/28 11:47:32;;;;;;;26.13;9.50;;;;;;;3.64;53.19;97260.03;2084056;28;20576;-57
2023/02/28 11:48:51;;;;;;;19.08;8.77;;;;;;;4.07;52.17;97242.41;2079006;28;20225;-57
2023/02/28 11:49:59;;;;;;;14.45;8.57;;;;;;;3.75;52.26;97264.22;2080001;28;20201;-57
2023/02/28 11:51:21;;;;;;;18.02;8.60;;;;;;;3.86;51.24;97245.19;2075858;28;20245;-63
2023/02/28 11:52:54;;;;;;;29.10;8.60;;;;;;;4.72;50.96;97256.41;2071974;28;20232;-63
2023/02/28 11:55:28;;;;;;;29.17;9.50;;;;;;;3.41;53.70;97248.97;2088254;28;20548;-63
2023/02/28 11:56:40;;;;;;;29.60;9.88;;;;;;;4.00;52.58;97243.38;2064620;28;20219;-63
2023/02/28 11:57:54;;;;;;;24.63;10.50;;;;;;;4.45;51.88;97248.09;2064299;28;20234;-63
2023/02/28 12:01:24;;;;;;;17.30;8.45;;;;;;;4.92;49.67;97248.41;2094878;27;20572;-66
2023/02/28 12:03:27;;;;;;;16.05;7.40;;;;;;;5.18;50.43;97237.72;2090858;28;20575;-65
2023/02/28 12:04:56;;;;;;;31.50;9.00;;;;;;;4.65;49.36;97236.69;2088690;28;20643;-66
2023/02/28 12:07:20;;;;;;;26.15;8.85;;;;;;;6.04;48.27;97243.38;2083534;28;20561;-65
2023/02/28 12:09:43;;;;;;;32.55;7.32;;;;;;;5.01;48.15;97247.44;2100875;27;20556;-64
2023/02/28 12:11:00;;;;;;;29.63;8.38;;;;;;;5.48;48.75;97239.91;2092292;27;20192;-63
2023/02/28 12:12:13;;;;;;;20.05;7.78;;;;;;;6.58;47.44;97245.84;2085529;28;20710;-64
2023/02/28 12:13:24;;;;;;;12.00;7.28;;;;;;;6.10;47.23;97233.75;2087203;28;20206;-64
2023/02/28 12:15:10;;;;;;;23.02;7.85;;;;;;;6.46;47.01;97233.97;2091367;28;20229;-64
2023/02/28 12:20:54;;;;;;;15.68;7.78;;;;;;;5.31;49.56;97248.78;2084455;28;20557;-66
2023/02/28 12:22:11;;;;;;;12.30;6.90;;;;;;;7.15;46.96;97229.97;2076410;28;20206;-66
2023/02/28 12:23:37;;;;;;;15.27;7.60;;;;;;;8.12;45.13;97234.63;2078425;28;20204;-66
2023/02/28 12:24:38;;;;;;;13.38;8.40;;;;;;;8.40;43.24;97230.47;2078612;28;20221;-66
2023/02/28 12:26:02;;;;;;;19.85;8.52;;;;;;;8.62;43.44;97239.44;2076483;28;20203;-66
2023/02/28 12:27:10;;;;;;;16.05;8.30;;;;;;;7.60;45.09;97241.97;2080044;28;20204;-64
2023/02/28 12:28:15;;;;;;;14.85;7.93;;;;;;;8.10;43.44;97223.44;2079515;28;20231;-66
2023/02/28 12:29:28;;;;;;;14.55;7.85;;;;;;;7.97;43.12;97233.31;2079122;28;20829;-66
2023/02/28 12:30:33;;;;;;;34.72;8.05;;;;;;;6.79;45.89;97239.38;2072921;28;20205;-66
2023/02/28 12:31:39;;;;;;;24.90;8.73;;;;;;;7.39;45.39;97232.94;2075346;28;20201;-66
2023/02/28 12:32:46;;;;;;;24.23;8.15;;;;;;;8.07;44.23;97227.84;2081554;28;20637;-66
2023/02/28 12:33:52;;;;;;;17.23;8.45;;;;;;;7.98;43.83;97228.94;2079851;28;20242;-66
2023/02/28 12:35:21;;;;;;;24.42;8.30;;;;;;;8.47;42.90;97217.28;2080531;28;20202;-66
2023/02/28 12:37:49;;;;;;;22.08;8.85;;;;;;;5.07;47.41;97224.91;2091317;28;20574;-64
2023/02/28 12:39:06;;;;;;;16.83;8.60;;;;;;;5.69;46.92;97215.41;2086838;28;20639;-64
2023/02/28 12:45:57;;;;;;;32.80;8.45;;;;;;;4.94;49.29;97217.34;2098853;27;20573;-63
2023/02/28 12:47:05;;;;;;;30.33;9.10;;;;;;;6.62;47.43;97206.84;2090754;28;20583;-64
2023/02/28 12:48:13;;;;;;;17.42;7.72;;;;;;;7.39;46.75;97214.75;2088177;28;20236;-64
2023/02/28 12:49:21;;;;;;;14.35;7.85;;;;;;;6.70;45.57;97217.94;2088085;28;20199;-64
2023/02/28 12:50:25;;;;;;;15.27;8.50;;;;;;;6.15;48.05;97211.19;2090468;28;20747;-64
2023/02/28 12:51:28;;;;;;;14.75;7.85;;;;;;;7.21;46.06;97208.19;2090814;28;20361;-64
2023/02/28 12:52:43;;;;;;;13.07;7.55;;;;;;;7.79;45.16;97202.53;2089315;28;20199;-65
2023/02/28 12:54:04;;;;;;;15.52;7.45;;;;;;;9.10;43.26;97205.97;2089889;28;20203;-64
2023/02/28 12:55:21;;;;;;;15.60;8.38;;;;;;;8.48;42.47;97208.59;2090815;28;20207;-65
2023/02/28 12:56:33;;;;;;;11.30;7.50;;;;;;;8.71;42.64;97193.22;2089740;28;20228;-64
2023/02/28 12:57:43;;;;;;;12.63;7.35;;;;;;;9.47;42.45;97194.41;2090857;28;20302;-66
2023/02/28 12:58:56;;;;;;;20.70;8.70;;;;;;;9.94;41.79;97205.09;2090659;28;20665;-66
2023/02/28 13:00:02;;;;;;;12.05;7.00;;;;;;;10.70;40.72;97199.03;2086722;28;20201;-66
2023/02/28 13:01:12;;;;;;;15.63;9.25;;;;;;;9.87;41.08;97206.19;2087707;28;20225;-66
2023/02/28 13:02:32;;;;;;;13.85;7.68;;;;;;;9.08;41.79;97207.78;2089007;28;20204;-66
2023/02/28 13:03:55;;;;;;;16.77;7.97;;;;;;;10.15;40.50;97167.88;2089675;28;20220;-67
2023/02/28 13:05:08;;;;;;;15.75;8.32;;;;;;;9.94;39.24;97212.91;2090413;28;20208;-67
2023/02/28 13:06:52;;;;;;;14.80;7.35;;;;;;;8.04;42.73;97199.31;2090300;28;20224;-67
2023/02/28 13:08:06;;;;;;;15.07;8.60;;;;;;;7.37;43.15;97202.69;2079947;28;20192;-66
2023/02/28 13:09:18;;;;;;;18.45;8.10;;;;;;;5.77;46.54;97207.50;2087251;28;20204;-66
2023/02/28 13:10:20;;;;;;;16.48;7.40;;;;;;;5.28;46.85;97206.50;2091386;28;20250;-66
2023/02/28 13:11:41;;;;;;;18.98;8.02;;;;;;;6.21;46.35;97203.31;2089604;28;20216;-66
2023/02/28 13:12:51;;;;;;;16.23;7.30;;;;;;;6.49;46.32;97197.59;2089591;28;20204;-66
2023/02/28 13:14:02;;;;;;;23.02;8.15;;;;;;;7.40;45.49;97192.19;2090276;28;20553;-65
2023/02/28 13:15:21;;;;;;;12.52;7.35;;;;;;;8.19;44.22;97191.13;2091495;28;20224;-66
2023/02/28 13:16:23;;;;;;;17.55;8.82;;;;;;;8.25;44.45;97192.69;2089290;28;20850;-66
2023/02/28 13:17:25;;;;;;;41.88;22.52;;;;;;;9.28;42.43;97196.75;2088728;28;20204;-66
2023/02/28 13:18:36;;;;;;;28.70;15.70;;;;;;;9.43;41.57;97198.91;2088872;28;20201;-67
2023/02/28 13:20:03;;;;;;;13.52;8.45;;;;;;;9.96;41.13;97192.81;2089768;28;20201;-66
2023/02/28 13:21:08;;;;;;;14.25;7.90;;;;;;;9.30;40.72;97190.56;2090768;28;20307;-66
2023/02/28 13:22:35;;;;;;;17.27;7.63;;;;;;;10.09;40.79;97200.25;2093468;28;20196;-66
2023/02/28 13:23:38;;;;;;;16.33;7.88;;;;;;;10.54;40.34;97198.72;2092572;28;20958;-66
2023/02/28 13:24:47;;;;;;;15.02;8.10;;;;;;;9.58;40.28;97194.09;2090458;28;20193;-66
2023/02/28 13:25:51;;;;;;;19.02;7.25;;;;;;;9.71;40.85;97197.16;2085972;28;20286;-66
2023/02/28 13:27:24;;;;;;;17.15;7.43;;;;;;;9.86;40.71;97191.41;2089713;28;20553;-66
2023/02/28 13:28:57;;;;;;;14.20;7.20;;;;;;;9.36;41.21;97194.75;2088886;28;20194;-66
2023/02/28 13:30:00;;;;;;;11.80;6.07;;;;;;;8.71;41.44;97198.41;2089065;28;20201;-66
2023/02/28 13:31:05;;;;;;;11.60;7.25;;;;;;;8.80;42.56;97198.19;2089952;28;20225;-65
2023/02/28 13:32:07;;;;;;;11.70;7.03;;;;;;;9.23;42.21;97201.25;2088551;28;20277;-66
2023/02/28 13:33:28;;;;;;;16.48;7.40;;;;;;;9.00;41.66;97197.56;2087226;28;20197;-66
2023/02/28 13:34:30;;;;;;;10.60;6.45;;;;;;;9.10;41.16;97182.53;2087990;28;20201;-66
2023/02/28 13:35:37;;;;;;;13.10;7.72;;;;;;;9.10;41.24;97201.63;2089625;28;20199;-66
2023/02/28 13:36:39;;;;;;;11.23;6.95;;;;;;;9.74;40.93;97192.69;2089853;28;20237;-66
2023/02/28 13:37:44;;;;;;;16.73;7.97;;;;;;;9.35;40.87;97197.44;2094394;28;20201;-66
2023/02/28 13:38:55;;;;;;;15.98;7.78;;;;;;;8.95;41.42;97202.94;2093826;28;20207;-66
2023/02/28 13:39:59;;;;;;;12.25;7.03;;;;;;;8.25;42.49;97184.88;2087263;28;20216;-66
2023/02/28 13:41:28;;;;;;;9.73;6.50;;;;;;;9.03;41.30;97199.22;2089310;28;20224;-66
2023/02/28 13:42:30;;;;;;;12.13;7.10;;;;;;;7.38;42.93;97201.75;2089909;28;20280;-67
2023/02/28 13:44:05;;;;;;;13.02;7.90;;;;;;;7.82;43.07;97199.84;2090629;28;20194;-67
2023/02/28 13:45:07;;;;;;;28.77;9.15;;;;;;;8.24;42.41;97197.06;2090036;28;20232;-66
2023/02/28 13:46:13;;;;;;;15.48;7.10;;;;;;;8.13;42.31;97197.31;2088011;28;20224;-66
2023/02/28 13:47:29;;;;;;;19.55;7.10;;;;;;;8.72;41.92;97195.75;2090507;28;20245;-66
2023/02/28 13:48:30;;;;;;;13.05;7.57;;;;;;;8.67;42.53;97192.44;2091800;28;20210;-66
2023/02/28 13:49:33;;;;;;;11.75;6.20;;;;;;;9.11;41.44;97197.25;2089710;28;20569;-66
2023/02/28 13:50:37;;;;;;;9.48;6.55;;;;;;;9.26;41.37;97204.59;2089775;28;20510;-65
2023/02/28 13:51:46;;;;;;;13.95;6.65;;;;;;;10.07;40.47;97189.88;2089406;28;20205;-66
2023/02/28 13:53:12;;;;;;;14.60;7.68;;;;;;;10.88;39.92;97192.28;2089713;28;20201;-66
2023/02/28 13:54:49;;;;;;;12.55;8.05;;;;;;;10.45;40.20;97205.16;2091538;28;20192;-67
2023/02/28 13:56:33;;;;;;;13.18;7.40;;;;;;;11.06;39.33;97202.03;2057107;28;20230;-66
2023/02/28 13:57:52;;;;;;;12.15;7.20;;;;;;;11.00;38.63;97193.59;2086353;28;20198;-66
2023/02/28 13:59:06;;;;;;;12.15;6.68;;;;;;;10.91;38.12;97202.63;2084738;28;20259;-67
2023/02/28 14:00:44;;;;;;;13.75;7.65;;;;;;;10.57;38.01;97204.69;2085807;28;20203;-66
2023/02/28 14:02:05;;;;;;;20.85;10.13;;;;;;;10.00;39.71;97204.00;2076415;28;20567;-66
2023/02/28 14:03:09;;;;;;;14.52;8.40;;;;;;;9.23;40.42;97202.09;2079848;28;20220;-66
2023/02/28 14:04:13;;;;;;;15.85;8.65;;;;;;;9.47;40.45;97197.88;2077629;28;20692;-66
2023/02/28 14:05:17;;;;;;;21.58;10.32;;;;;;;8.34;41.60;97202.84;2076857;28;20202;-66
2023/02/28 14:06:33;;;;;;;13.05;7.93;;;;;;;7.40;43.38;97187.84;2083918;28;20227;-66
2023/02/28 14:08:08;;;;;;;30.65;10.43;;;;;;;8.13;42.61;97197.31;2084654;28;20205;-66
2023/02/28 14:09:41;;;;;;;27.73;10.73;;;;;;;6.50;44.19;97205.34;2084146;28;20206;-66
2023/02/28 14:10:48;;;;;;;32.95;9.65;;;;;;;7.40;44.48;97174.00;2078899;28;20209;-65
2023/02/28 14:11:50;;;;;;;17.25;7.20;;;;;;;8.78;42.65;97195.59;2085492;28;20263;-65
2023/02/28 14:12:54;;;;;;;20.05;8.32;;;;;;;7.48;43.27;97165.16;2081373;28;20817;-66
2023/02/28 14:13:56;;;;;;;15.57;8.35;;;;;;;7.46;42.58;97177.31;2083160;28;20235;-65
2023/02/28 14:14:57;;;;;;;11.32;7.63;;;;;;;7.04;43.88;97198.19;2085368;28;20201;-65
2023/02/28 14:16:03;;;;;;;14.13;7.75;;;;;;;7.29;44.52;97197.66;2080360;28;20225;-65
2023/02/28 14:17:14;;;;;;;23.13;9.70;;;;;;;7.97;43.29;97186.47;2084830;28;20227;-65
2023/02/28 14:18:27;;;;;;;15.30;7.30;;;;;;;7.83;43.19;97198.97;2084202;28;20207;-66
2023/02/28 14:19:31;;;;;;;13.77;8.30;;;;;;;8.93;42.19;97188.25;2084839;28;20196;-65
2023/02/28 14:20:33;;;;;;;19.58;8.38;;;;;;;9.75;40.46;97199.63;2084138;28;20210;-66
2023/02/28 14:21:38;;;;;;;22.95;7.90;;;;;;;9.14;40.40;97199.75;2085180;28;20236;-65
2023/02/28 14:23:04;;;;;;;13.90;7.28;;;;;;;8.39;41.52;97190.56;2083856;28;20209;-66
2023/02/28 14:24:46;;;;;;;12.95;7.22;;;;;;;9.39;41.32;97196.41;2083637;28;20205;-59
2023/02/28 14:26:10;;;;;;;13.20;7.05;;;;;;;9.26;41.41;97204.59;2084077;28;20213;-59
2023/02/28 14:27:23;;;;;;;11.15;6.82;;;;;;;9.53;40.52;97198.59;2083651;28;20596;-59
2023/02/28 14:28:40;;;;;;;13.55;7.60;;;;;;;10.08;39.93;97198.53;2083907;28;20233;-59
2023/02/28 14:29:51;;;;;;;12.60;6.50;;;;;;;10.24;39.68;97194.50;2084502;28;20201;-59
2023/02/28 14:30:52;;;;;;;12.23;6.90;;;;;;;10.11;39.67;97194.06;2080177;28;20740;-57
2023/02/28 14:32:06;;;;;;;13.07;7.30;;;;;;;10.21;39.66;97194.63;2085330;28;20200;-57
2023/02/28 14:33:23;;;;;;;10.80;7.63;;;;;;;10.13;39.63;97197.50;2085483;28;20578;-57
2023/02/28 14:34:50;;;;;;;10.48;6.80;;;;;;;10.02;39.11;97190.91;2084153;28;20328;-57
2023/02/28 14:36:00;;;;;;;16.77;7.80;;;;;;;10.08;39.50;97193.31;2081876;28;20301;-57
2023/02/28 14:37:03;;;;;;;26.38;7.63;;;;;;;10.69;38.76;97192.97;2084118;28;20230;-57
2023/02/28 14:38:07;;;;;;;11.23;7.22;;;;;;;10.72;38.80;97185.00;2084266;28;20202;-57
2023/02/28 14:39:23;;;;;;;13.75;7.82;;;;;;;10.26;39.31;97190.09;2081066;28;20248;-57
2023/02/28 14:40:30;;;;;;;17.92;7.85;;;;;;;10.02;39.54;97188.28;2083375;28;20264;-58
2023/02/28 14:41:38;;;;;;;12.55;7.53;;;;;;;9.23;40.53;97189.09;2082197;28;20219;-57
2023/02/28 14:42:47;;;;;;;12.57;7.47;;;;;;;9.52;40.83;97200.34;2088587;28;20230;-57
2023/02/28 14:43:55;;;;;;;21.00;8.63;;;;;;;9.96;40.28;97194.59;2087229;28;20744;-57
2023/02/28 14:44:57;;;;;;;11.93;8.43;;;;;;;10.26;39.78;97195.31;2084052;28;20262;-57
2023/02/28 14:46:04;;;;;;;13.07;8.20;;;;;;;10.08;40.10;97191.56;2083752;28;20228;-57
2023/02/28 14:47:15;;;;;;;14.68;8.70;;;;;;;10.35;40.17;97194.13;2085492;28;20584;-58
2023/02/28 14:48:18;;;;;;;9.75;6.63;;;;;;;10.47;40.02;97197.25;2083851;28;20199;-57
2023/02/28 14:49:23;;;;;;;12.75;8.02;;;;;;;10.73;39.25;97191.09;2080985;28;20209;-57
2023/02/28 14:50:30;;;;;;;16.50;7.63;;;;;;;10.84;38.81;97194.13;2082704;28;20243;-57
2023/02/28 14:51:32;;;;;;;8.98;6.85;;;;;;;10.77;38.99;97195.28;2088096;28;20882;-57
2023/02/28 14:52:34;;;;;;;13.68;8.30;;;;;;;10.82;38.81;97167.25;2088389;28;20204;-57
2023/02/28 14:53:37;;;;;;;10.00;6.53;;;;;;;11.12;38.26;97180.03;2084926;28;20239;-57
2023/02/28 14:54:39;;;;;;;10.55;7.63;;;;;;;11.04;38.62;97197.78;2082382;28;20251;-57
2023/02/28 14:55:45;;;;;;;12.90;8.50;;;;;;;11.07;38.44;97195.91;2079863;28;20579;-57
2023/02/28 14:56:49;;;;;;;12.10;7.32;;;;;;;11.02;38.50;97190.00;2083189;28;20198;-57
2023/02/28 14:58:00;;;;;;;10.63;7.20;;;;;;;11.13;38.68;97199.19;2082050;28;20248;-57
2023/02/28 14:59:01;;;;;;;11.25;7.55;;;;;;;10.99;38.43;97195.34;2084087;28;20206;-58
2023/02/28 15:00:20;;;;;;;10.32;7.78;;;;;;;10.65;38.73;97191.34;2083657;28;20200;-57
2023/02/28 15:01:23;;;;;;;13.73;7.72;;;;;;;10.61;38.56;97198.47;2079416;28;20228;-58
2023/02/28 15:02:30;;;;;;;13.15;7.82;;;;;;;9.89;39.74;97201.78;2083007;28;20541;-57
2023/02/28 15:03:37;;;;;;;10.57;8.25;;;;;;;9.99;39.93;97199.69;2083172;28;20251;-58
2023/02/28 15:04:38;;;;;;;18.38;8.73;;;;;;;9.91;39.63;97199.94;2082994;28;20206;-57
2023/02/28 15:05:40;;;;;;;12.77;8.10;;;;;;;9.06;41.62;97206.97;2079446;28;20247;-58
2023/02/28 15:06:41;;;;;;;12.85;7.60;;;;;;;9.67;41.11;97203.38;2082755;28;20667;-57
2023/02/28 15:07:44;;;;;;;13.38;8.38;;;;;;;9.81;40.67;97198.56;2081726;28;20236;-58
2023/02/28 15:08:45;;;;;;;11.23;7.93;;;;;;;9.09;42.00;97194.72;2081655;28;20337;-57
2023/02/28 15:09:47;;;;;;;12.82;8.50;;;;;;;9.70;41.82;97200.66;2080625;28;20212;-57
2023/02/28 15:11:18;;;;;;;13.45;8.43;;;;;;;9.52;41.95;97199.50;2080724;28;20239;-57
2023/02/28 15:12:20;;;;;;;15.20;9.23;;;;;;;9.03;42.79;97204.44;2083745;28;20208;-57
2023/02/28 15:13:23;;;;;;;11.32;7.65;;;;;;;8.90;42.85;97198.75;2082668;28;20194;-57
2023/02/28 15:14:27;;;;;;;13.05;8.10;;;;;;;8.88;43.64;97200.56;2084234;28;20272;-57
2023/02/28 15:15:44;;;;;;;24.35;8.25;;;;;;;9.11;43.06;97207.69;2083990;28;20199;-57
2023/02/28 15:17:09;;;;;;;11.65;7.53;;;;;;;9.25;43.03;97208.09;2083712;28;20801;-57
2023/02/28 15:18:43;;;;;;;15.88;8.73;;;;;;;8.84;42.79;97207.59;2082677;28;20215;-57
2023/02/28 15:19:48;;;;;;;13.23;8.10;;;;;;;9.32;42.36;97208.81;2082261;28;20209;-57
2023/02/28 15:20:51;;;;;;;13.50;8.35;;;;;;;9.84;41.52;97201.06;2081805;28;20207;-59
2023/02/28 15:22:17;;;;;;;14.45;7.78;;;;;;;9.80;40.67;97197.72;2082187;28;20223;-59
2023/02/28 15:23:21;;;;;;;11.38;7.60;;;;;;;9.82;39.92;97207.25;2084384;28;20209;-59
2023/02/28 15:24:46;;;;;;;16.17;8.52;;;;;;;9.18;41.20;97201.41;2081847;28;20197;-57
2023/02/28 15:25:50;;;;;;;11.35;6.53;;;;;;;9.33;40.75;97207.88;2083008;28;20197;-57
2023/02/28 15:26:59;;;;;;;14.15;8.60;;;;;;;9.32;40.62;97190.56;2083351;28;20212;-57
2023/02/28 15:28:01;;;;;;;11.65;8.30;;;;;;;9.62;40.28;97207.00;2085419;28;20192;-57
2023/02/28 15:29:08;;;;;;;14.43;7.82;;;;;;;9.14;41.19;97200.63;2085056;28;20211;-57
2023/02/28 15:30:26;;;;;;;10.40;7.40;;;;;;;9.46;40.97;97204.00;2083472;28;20669;-57
2023/02/28 15:31:31;;;;;;;11.52;7.82;;;;;;;9.53;40.58;97207.25;2085951;28;20235;-57
2023/02/28 15:33:19;;;;;;;12.80;7.78;;;;;;;9.35;40.39;97163.53;2083627;28;20290;-57
2023/02/28 15:34:27;;;;;;;14.48;7.43;;;;;;;9.56;40.87;97199.34;2082931;28;20552;-57
2023/02/28 15:35:41;;;;;;;12.73;7.90;;;;;;;9.01;41.10;97199.28;2082712;28;20197;-57
2023/02/28 15:36:42;;;;;;;11.73;7.68;;;;;;;9.18;41.48;97200.53;2082374;28;20196;-57
2023/02/28 15:37:56;;;;;;;13.68;8.68;;;;;;;9.36;41.49;97196.50;2085601;28;20348;-57
2023/02/28 15:38:58;;;;;;;11.25;8.00;;;;;;;9.43;41.51;97198.03;2083988;28;20206;-57
2023/02/28 15:40:22;;;;;;;15.15;8.25;;;;;;;9.32;41.83;97207.03;2083931;28;20203;-57
2023/02/28 15:41:29;;;;;;;17.50;7.60;;;;;;;9.31;41.29;97191.44;2083968;28;20222;-57
2023/02/28 15:42:31;;;;;;;13.02;7.88;;;;;;;9.47;41.40;97210.94;2083367;28;20291;-57
2023/02/28 15:43:36;;;;;;;15.25;8.43;;;;;;;9.70;41.00;97206.75;2083144;28;20200;-57
2023/02/28 15:44:38;;;;;;;14.23;8.20;;;;;;;9.40;40.70;97187.72;2083135;28;20251;-58
2023/02/28 15:45:48;;;;;;;15.30;8.50;;;;;;;8.60;41.35;97098.03;2081911;28;20204;-57
2023/02/28 15:47:14;;;;;;;13.98;8.80;;;;;;;9.24;41.49;97202.94;2082856;28;20213;-57
2023/02/28 15:48:20;;;;;;;15.35;9.00;;;;;;;9.06;41.78;97206.97;2083441;28;20203;-59
2023/02/28 15:49:23;;;;;;;12.75;7.50;;;;;;;9.05;42.16;97207.88;2084102;28;20235;-59
2023/02/28 15:50:28;;;;;;;13.68;8.80;;;;;;;9.06;42.17;97206.97;2082156;28;20198;-59
2023/02/28 15:51:37;;;;;;;16.75;8.88;;;;;;;9.22;42.15;97204.75;2082656;28;20269;-59
2023/02/28 15:52:42;;;;;;;14.55;9.23;;;;;;;8.97;42.92;97198.50;2084445;28;20242;-59
2023/02/28 15:54:01;;;;;;;19.08;8.43;;;;;;;8.82;43.10;97197.22;2080503;28;20204;-59
2023/02/28 15:55:19;;;;;;;14.20;8.95;;;;;;;8.90;42.89;97203.94;2082020;28;20201;-59
2023/02/28 15:56:44;;;;;;;12.57;8.52;;;;;;;8.90;42.66;97204.81;2079847;28;20227;-59
2023/02/28 15:57:49;;;;;;;13.45;8.50;;;;;;;8.90;42.95;97204.81;2083797;28;20193;-59
2023/02/28 15:59:17;;;;;;;16.95;9.30;;;;;;;8.61;43.36;97200.44;2084509;28;20198;-59
2023/02/28 16:00:22;;;;;;;20.65;8.63;;;;;;;8.52;43.48;97193.75;2083528;28;20197;-60
2023/02/28 16:01:30;;;;;;;14.68;8.90;;;;;;;8.31;43.56;97198.59;2083328;28;20896;-57
2023/02/28 16:02:36;;;;;;;13.35;8.30;;;;;;;7.81;44.09;97193.81;2083269;28;20202;-57
2023/02/28 16:03:43;;;;;;;14.32;9.40;;;;;;;7.93;44.40;97205.63;2083255;28;20211;-57
2023/02/28 16:05:09;;;;;;;14.65;8.60;;;;;;;7.74;44.64;97205.25;2084207;28;20197;-57
2023/02/28 16:06:16;;;;;;;14.70;8.18;;;;;;;7.96;44.50;97195.19;2082774;28;20251;-57
2023/02/28 16:07:18;;;;;;;17.00;8.50;;;;;;;7.97;44.23;97198.63;2083619;28;20218;-57
2023/02/28 16:08:19;;;;;;;15.60;8.60;;;;;;;7.89;44.59;97204.00;2082172;28;20653;-57
2023/02/28 16:09:21;;;;;;;14.80;8.85;;;;;;;7.68;44.62;97200.19;2085420;28;20236;-58
2023/02/28 16:10:25;;;;;;;13.13;8.65;;;;;;;7.62;45.30;97208.16;2080917;28;20209;-57
2023/02/28 16:11:27;;;;;;;25.05;9.70;;;;;;;7.51;45.05;97213.59;2082380;28;20352;-57
2023/02/28 16:12:32;;;;;;;12.27;7.95;;;;;;;7.54;45.02;97210.91;2084412;28;20204;-57
2023/02/28 16:13:34;;;;;;;17.58;8.70;;;;;;;7.57;45.37;97203.06;2083712;28;20204;-57
2023/02/28 16:14:39;;;;;;;15.82;9.38;;;;;;;7.47;45.53;97207.59;2082711;28;20656;-57
2023/02/28 16:15:43;;;;;;;15.45;8.55;;;;;;;7.42;45.33;97211.22;2082237;28;20237;-59
2023/02/28 16:16:48;;;;;;;14.52;8.73;;;;;;;7.46;45.50;97202.47;2083031;28;20197;-59
2023/02/28 16:17:50;;;;;;;13.25;8.90;;;;;;;7.47;45.40;97202.41;2083537;28;20897;-59
2023/02/28 16:18:52;;;;;;;12.63;8.73;;;;;;;7.48;45.93;97205.88;2081540;28;20197;-60
2023/02/28 16:19:55;;;;;;;13.07;7.72;;;;;;;7.50;45.80;97211.88;2082320;28;20205;-59
2023/02/28 16:20:56;;;;;;;16.45;8.27;;;;;;;7.33;45.88;97207.09;2084726;28;20233;-59
2023/02/28 16:21:58;;;;;;;15.43;9.00;;;;;;;7.43;45.54;97205.97;2084710;28;20193;-59
2023/02/28 16:23:01;;;;;;;13.25;7.63;;;;;;;7.38;45.22;97188.78;2080313;28;20229;-59
2023/02/28 16:24:03;;;;;;;13.93;8.30;;;;;;;7.37;45.73;97200.06;2084262;28;20675;-59
2023/02/28 16:25:07;;;;;;;15.05;8.35;;;;;;;7.34;45.58;97222.63;2083337;28;20205;-59
2023/02/28 16:26:19;;;;;;;11.82;7.60;;;;;;;7.09;45.86;97193.75;2084045;28;20236;-59
2023/02/28 16:27:28;;;;;;;12.10;8.40;;;;;;;7.24;45.64;97222.84;2079930;28;20206;-59
2023/02/28 16:28:34;;;;;;;13.52;8.23;;;;;;;7.21;45.74;97218.59;2081494;28;20452;-60
2023/02/28 16:29:37;;;;;;;13.63;7.88;;;;;;;6.88;46.41;97210.63;2083807;28;20226;-59
2023/02/28 16:30:38;;;;;;;12.13;8.60;;;;;;;6.53;47.22;97214.81;2079157;28;20216;-59
2023/02/28 16:31:40;;;;;;;11.98;8.35;;;;;;;6.61;47.48;97220.69;2080623;28;20252;-59
2023/02/28 16:32:41;;;;;;;16.30;9.10;;;;;;;6.70;47.15;97225.72;2083457;28;20229;-59
2023/02/28 16:33:45;;;;;;;13.65;9.43;;;;;;;6.82;46.85;97223.78;2082387;28;20336;-59
2023/02/28 16:34:46;;;;;;;12.60;8.48;;;;;;;6.76;47.22;97223.88;2082793;28;20201;-59
2023/02/28 16:35:48;;;;;;;12.95;8.15;;;;;;;6.72;47.46;97228.28;2082110;28;20684;-59
2023/02/28 16:36:50;;;;;;;12.68;8.82;;;;;;;6.60;47.53;97231.97;2083412;28;20248;-60
2023/02/28 16:37:53;;;;;;;16.13;8.07;;;;;;;6.61;47.65;97225.03;2083902;28;20202;-59
2023/02/28 16:38:55;;;;;;;13.40;9.05;;;;;;;6.45;47.97;97224.47;2082789;28;20545;-59
2023/02/28 16:39:56;;;;;;;13.23;8.90;;;;;;;6.49;47.91;97228.75;2083769;28;20203;-59
2023/02/28 16:40:59;;;;;;;17.88;9.30;;;;;;;6.30;48.37;97230.81;2085658;28;20695;-59
2023/02/28 16:42:01;;;;;;;12.48;8.98;;;;;;;6.11;48.83;97217.34;2083135;28;20263;-59
2023/02/28 16:43:08;;;;;;;15.20;8.88;;;;;;;6.03;48.76;97233.88;2085913;28;20319;-59
2023/02/28 16:44:13;;;;;;;13.68;9.18;;;;;;;6.07;48.74;97229.50;2086884;28;20736;-59
2023/02/28 16:45:23;;;;;;;18.60;10.13;;;;;;;6.04;48.94;97226.94;2081131;28;20236;-59
2023/02/28 16:46:30;;;;;;;14.88;8.63;;;;;;;5.84;49.55;97227.22;2079752;28;20233;-59
